Terminal Aerodrome Forecast
Issued by NWS Jackson, KY

Home | Current Version | Previous Version | Text Only | Print | Product List | Glossary On
Versions: 1 2 3 4 5 6 7 8 9 10 11 12 13 14 15 16 17 18 19 20 21
000
FTUS43 KJKL 211744
TAFJKL
TAF
KJKL 211744Z 2118/2218 20007KT P6SM SCT200
     FM212100 VRB05KT P6SM BKN100
     FM220200 VRB05KT P6SM VCSH SCT040 BKN070
     FM220600 VRB05KT P6SM -SHRA OVC030
     FM220800 VRB05KT P6SM -SHRA OVC015
     FM221300 00000KT P6SM OVC015=

USA.gov is the U.S. government's official web portal to all federal, state and local government web resources and services.